createdAt,value
2022-08-25T00:00:29.539Z,15.9
2022-08-25T00:01:19.056Z,15.9
2022-08-25T00:02:18.012Z,15.9
2022-08-25T00:03:18.582Z,15.9
2022-08-25T00:04:19.878Z,15.9
2022-08-25T00:05:17.725Z,15.9
2022-08-25T00:06:19.321Z,15.9
2022-08-25T00:07:22.783Z,15.8
2022-08-25T00:08:26.321Z,15.9
2022-08-25T00:09:20.001Z,15.9
2022-08-25T00:10:08.771Z,15.9
2022-08-25T00:11:23.050Z,15.8
2022-08-25T00:12:21.021Z,15.8
2022-08-25T00:13:14.421Z,15.8
2022-08-25T00:14:19.815Z,15.7
2022-08-25T00:15:19.832Z,15.7
2022-08-25T00:16:19.651Z,15.6
2022-08-25T00:17:19.341Z,15.7
2022-08-25T00:18:24.099Z,15.7
2022-08-25T00:19:18.779Z,15.6
2022-08-25T00:20:20.653Z,15.6
2022-08-25T00:21:21.527Z,15.6
2022-08-25T00:22:19.842Z,15.6
2022-08-25T00:23:17.869Z,15.6
2022-08-25T00:24:17.682Z,15.6
2022-08-25T00:25:26.557Z,15.6
2022-08-25T00:26:26.203Z,15.6
2022-08-25T00:27:18.484Z,15.6
2022-08-25T00:28:20.551Z,15.6
2022-08-25T00:29:22.591Z,15.6
2022-08-25T00:30:20.216Z,15.5
2022-08-25T00:31:15.047Z,15.4
2022-08-25T00:32:24.759Z,15.5
2022-08-25T00:33:17.023Z,15.6
2022-08-25T00:34:18.017Z,15.6
2022-08-25T00:35:21.644Z,15.5
2022-08-25T00:36:13.875Z,15.4
2022-08-25T00:37:23.377Z,15.4
2022-08-25T00:38:18.731Z,15.4
2022-08-25T00:39:26.295Z,15.4
2022-08-25T00:40:08.525Z,15.4
2022-08-25T00:41:18.849Z,15.4
2022-08-25T00:42:20.380Z,15.5
2022-08-25T00:43:17.149Z,15.6
2022-08-25T00:44:16.184Z,15.6
2022-08-25T00:45:20.623Z,15.4
2022-08-25T00:46:18.940Z,15.5
2022-08-25T00:47:20.622Z,15.5
2022-08-25T00:48:20.360Z,15.5
2022-08-25T00:49:29.491Z,15.5
2022-08-25T00:50:30.830Z,15.4
2022-08-25T00:51:13.831Z,15.4
2022-08-25T00:52:24.599Z,15.3
2022-08-25T00:53:17.151Z,15.3
2022-08-25T00:54:20.530Z,15.3
2022-08-25T00:55:25.771Z,15.3
2022-08-25T00:56:20.810Z,15.3
2022-08-25T00:57:28.982Z,15.3
2022-08-25T00:58:16.993Z,15.2
2022-08-25T00:59:20.734Z,15.3
2022-08-25T01:00:15.057Z,15.3
2022-08-25T01:01:19.170Z,15.3
2022-08-25T01:02:21.939Z,15.2
2022-08-25T01:03:15.423Z,15.2
2022-08-25T01:04:16.562Z,15.2
2022-08-25T01:05:10.042Z,15.2
2022-08-25T01:06:34.622Z,15.3
2022-08-25T01:07:22.187Z,15.3
2022-08-25T01:08:20.494Z,15.3
2022-08-25T01:09:22.107Z,15.2
2022-08-25T01:10:09.130Z,15.2
2022-08-25T01:11:17.920Z,15.2
2022-08-25T01:12:28.056Z,15.2
2022-08-25T01:13:22.260Z,15.2
2022-08-25T01:14:17.339Z,15.2
2022-08-25T01:15:26.158Z,15.3
2022-08-25T01:16:07.987Z,15.3
2022-08-25T01:17:21.771Z,15.4
2022-08-25T01:18:15.791Z,15.4
2022-08-25T01:19:19.813Z,15.3
2022-08-25T01:20:23.285Z,15.3
2022-08-25T01:21:15.915Z,15.3
2022-08-25T01:22:17.236Z,15.2
2022-08-25T01:23:22.816Z,15.3
2022-08-25T01:24:20.709Z,15.3
2022-08-25T01:25:17.095Z,15.3
2022-08-25T01:26:34.262Z,15.3
2022-08-25T01:27:15.481Z,15.3
2022-08-25T01:28:21.299Z,15.2
2022-08-25T01:29:16.382Z,15.3
2022-08-25T01:30:22.602Z,15.2
2022-08-25T01:31:27.975Z,15.2
2022-08-25T01:32:16.740Z,15.1
2022-08-25T01:33:16.918Z,15.1
2022-08-25T01:34:21.780Z,15.1
2022-08-25T01:35:18.476Z,15.2
2022-08-25T01:36:18.048Z,15.2
2022-08-25T01:37:20.252Z,15.1
2022-08-25T01:38:21.606Z,15.1
2022-08-25T01:39:21.458Z,15.1
2022-08-25T01:40:07.394Z,15.1
2022-08-25T01:41:14.045Z,15.2
2022-08-25T01:42:23.487Z,15.2
2022-08-25T01:43:16.595Z,15.1
2022-08-25T01:44:21.809Z,15.1
2022-08-25T01:45:17.565Z,15.1
2022-08-25T01:46:15.957Z,15.1
2022-08-25T01:47:19.965Z,15.1
2022-08-25T01:48:18.872Z,15.2
2022-08-25T01:49:20.501Z,15.3
2022-08-25T01:50:21.213Z,15.3
2022-08-25T01:51:18.594Z,15.2
2022-08-25T01:52:19.428Z,15.2
2022-08-25T01:53:20.429Z,15.2
2022-08-25T01:54:19.614Z,15.2
2022-08-25T01:55:24.634Z,15.2
2022-08-25T01:56:20.689Z,15.1
2022-08-25T01:57:20.378Z,15.2
2022-08-25T01:58:17.451Z,15.2
2022-08-25T01:59:28.055Z,15
2022-08-25T02:00:18.871Z,14.9
2022-08-25T02:03:23.181Z,14.9
2022-08-25T02:04:26.184Z,14.9
2022-08-25T02:05:30.261Z,14.9
2022-08-25T02:06:18.873Z,14.9
2022-08-25T02:07:23.334Z,14.9
2022-08-25T02:08:16.714Z,14.9
2022-08-25T02:09:29.023Z,14.9
2022-08-25T02:10:12.614Z,14.9
2022-08-25T02:11:19.415Z,14.9
2022-08-25T02:12:18.472Z,15
2022-08-25T02:13:31.150Z,15
2022-08-25T02:14:18.807Z,15
2022-08-25T02:15:20.760Z,15
2022-08-25T02:16:21.848Z,15.1
2022-08-25T02:17:20.087Z,15.1
2022-08-25T02:18:18.125Z,15.1
2022-08-25T02:19:14.966Z,15.1
2022-08-25T02:20:20.370Z,15.2
2022-08-25T02:21:14.052Z,15.3
2022-08-25T02:22:24.181Z,15.3
2022-08-25T02:23:17.497Z,15.3
2022-08-25T02:24:22.961Z,15.3
2022-08-25T02:25:21.384Z,15.3
2022-08-25T02:26:17.801Z,15.3
2022-08-25T02:27:17.058Z,15.1
2022-08-25T02:28:22.800Z,15.1
2022-08-25T02:29:19.783Z,15.1
2022-08-25T02:30:18.927Z,15.1
2022-08-25T02:31:22.194Z,15.1
2022-08-25T02:32:20.665Z,15
2022-08-25T02:33:19.000Z,15
2022-08-25T02:34:16.783Z,15.1
2022-08-25T02:35:22.518Z,15
2022-08-25T02:36:24.028Z,15
2022-08-25T02:37:20.336Z,15
2022-08-25T02:38:25.759Z,15.1
2022-08-25T02:39:28.333Z,15.1
2022-08-25T02:40:07.848Z,15.1
2022-08-25T02:41:17.158Z,15
2022-08-25T02:42:25.607Z,14.9
2022-08-25T02:43:16.172Z,14.9
2022-08-25T02:44:19.516Z,14.9
2022-08-25T02:45:18.844Z,14.9
2022-08-25T02:46:18.921Z,14.8
2022-08-25T02:47:17.299Z,14.9
2022-08-25T02:48:14.914Z,14.9
2022-08-25T02:49:18.111Z,14.9
2022-08-25T02:50:19.748Z,14.9
2022-08-25T02:51:20.227Z,14.8
2022-08-25T02:52:16.846Z,14.8
2022-08-25T02:53:17.790Z,14.8
2022-08-25T02:54:20.344Z,14.8
2022-08-25T02:55:19.127Z,14.8
2022-08-25T02:56:21.750Z,14.8
2022-08-25T02:57:18.703Z,14.8
2022-08-25T02:58:21.589Z,14.8
2022-08-25T02:59:19.504Z,14.8
2022-08-25T03:00:25.247Z,14.8
2022-08-25T03:01:17.133Z,14.8
2022-08-25T03:02:16.292Z,14.8
2022-08-25T03:03:20.624Z,14.9
2022-08-25T03:04:24.034Z,14.9
2022-08-25T03:05:20.255Z,14.9
2022-08-25T03:06:41.511Z,14.9
2022-08-25T03:07:07.115Z,14.9
2022-08-25T03:08:20.784Z,14.9
2022-08-25T03:09:25.777Z,14.9
2022-08-25T03:10:08.250Z,14.9
2022-08-25T03:11:21.984Z,14.8
2022-08-25T03:12:21.486Z,14.8
2022-08-25T03:13:16.929Z,14.8
2022-08-25T03:14:20.871Z,14.8
2022-08-25T03:15:18.099Z,14.8
2022-08-25T03:16:22.921Z,14.8
2022-08-25T03:17:18.533Z,14.8
2022-08-25T03:18:21.369Z,14.8
2022-08-25T03:19:27.836Z,14.8
2022-08-25T03:20:20.807Z,14.8
2022-08-25T03:21:19.886Z,14.8
2022-08-25T03:22:17.686Z,14.8
2022-08-25T03:23:20.230Z,14.8
2022-08-25T03:24:20.429Z,14.8
2022-08-25T03:25:28.053Z,14.8
2022-08-25T03:26:23.165Z,14.8
2022-08-25T03:27:25.507Z,14.7
2022-08-25T03:28:10.170Z,14.7
2022-08-25T03:29:22.351Z,14.8
2022-08-25T03:30:18.943Z,14.8
2022-08-25T03:31:24.674Z,14.7
2022-08-25T03:32:16.602Z,14.8
2022-08-25T03:33:17.712Z,14.8
2022-08-25T03:34:23.571Z,14.8
2022-08-25T03:35:21.506Z,14.8
2022-08-25T03:36:21.841Z,14.8
2022-08-25T03:37:38.331Z,14.7
2022-08-25T03:38:08.092Z,14.7
2022-08-25T03:39:26.432Z,14.8
2022-08-25T03:40:08.503Z,14.8
2022-08-25T03:41:18.192Z,14.8
2022-08-25T03:42:16.053Z,14.8
2022-08-25T03:43:22.631Z,14.6
2022-08-25T03:44:18.741Z,14.6
2022-08-25T03:45:26.053Z,14.6
2022-08-25T03:46:07.439Z,14.6
2022-08-25T03:47:18.552Z,14.6
2022-08-25T03:48:14.687Z,14.6
2022-08-25T03:49:19.205Z,14.6
2022-08-25T03:50:16.133Z,14.6
2022-08-25T03:51:21.098Z,14.6
2022-08-25T03:52:15.640Z,14.6
2022-08-25T03:53:24.046Z,14.5
2022-08-25T03:54:20.547Z,14.5
2022-08-25T03:55:21.599Z,14.5
2022-08-25T03:56:18.399Z,14.5
2022-08-25T03:57:18.815Z,14.5
2022-08-25T03:58:23.159Z,14.5
2022-08-25T03:59:20.450Z,14.5
2022-08-25T04:00:19.561Z,14.4
2022-08-25T04:01:22.449Z,14.4
2022-08-25T04:02:17.472Z,14.4
2022-08-25T04:03:16.076Z,14.4
2022-08-25T04:04:24.716Z,14.4
2022-08-25T04:05:22.308Z,14.4
2022-08-25T04:06:27.809Z,14.4
2022-08-25T04:07:18.002Z,14.4
2022-08-25T04:08:23.244Z,14.3
2022-08-25T04:09:07.437Z,14.3
2022-08-25T04:10:21.726Z,14.3
2022-08-25T04:11:23.187Z,14.3
2022-08-25T04:12:24.818Z,14.3
2022-08-25T04:13:24.629Z,14.3
2022-08-25T04:14:20.842Z,14.3
2022-08-25T04:15:20.911Z,14.4
2022-08-25T04:16:17.374Z,14.4
2022-08-25T04:17:21.999Z,14.3
2022-08-25T04:18:24.506Z,14.3
2022-08-25T04:19:19.876Z,14.3
2022-08-25T04:20:08.879Z,14.2
2022-08-25T04:21:22.657Z,14.2
2022-08-25T04:22:18.131Z,14.2
2022-08-25T04:23:23.372Z,14.2
2022-08-25T04:24:18.589Z,14.3
2022-08-25T04:25:26.342Z,14.3
2022-08-25T04:26:10.260Z,14.4
2022-08-25T04:27:20.422Z,14.4
2022-08-25T04:28:17.552Z,14.6
2022-08-25T04:29:27.590Z,14.6
2022-08-25T04:30:19.625Z,14.6
2022-08-25T04:31:25.360Z,14.5
2022-08-25T04:32:18.930Z,14.6
2022-08-25T04:33:21.314Z,14.6
2022-08-25T04:34:33.982Z,14.6
2022-08-25T04:35:30.616Z,14.6
2022-08-25T04:36:12.459Z,14.4
2022-08-25T04:37:26.521Z,14.4
2022-08-25T04:38:18.795Z,14.4
2022-08-25T04:39:28.512Z,14.4
2022-08-25T04:40:09.859Z,14.4
2022-08-25T04:41:19.763Z,14.4
2022-08-25T04:42:38.301Z,14.4
2022-08-25T04:43:07.335Z,14.4
2022-08-25T04:44:28.314Z,14.3
2022-08-25T04:45:16.035Z,14.4
2022-08-25T04:46:24.913Z,14.4
2022-08-25T04:47:18.367Z,14.4
2022-08-25T04:48:20.676Z,14.3
2022-08-25T04:49:20.747Z,14.3
2022-08-25T04:50:19.064Z,14.3
2022-08-25T04:51:22.834Z,14.3
2022-08-25T04:52:20.344Z,14.3
2022-08-25T04:53:23.181Z,14.4
2022-08-25T04:54:25.260Z,14.4
2022-08-25T04:55:20.032Z,14.4
2022-08-25T04:56:18.718Z,14.4
2022-08-25T04:57:18.897Z,14.5
2022-08-25T04:58:22.263Z,14.6
2022-08-25T04:59:19.006Z,14.6
2022-08-25T05:00:18.203Z,14.8
2022-08-25T05:01:20.168Z,14.8
2022-08-25T05:02:13.835Z,14.8
2022-08-25T05:03:15.409Z,14.9
2022-08-25T05:04:32.084Z,14.9
2022-08-25T05:05:21.095Z,14.9
2022-08-25T05:06:35.551Z,14.9
2022-08-25T05:07:07.114Z,14.9
2022-08-25T05:08:20.687Z,15
2022-08-25T05:09:27.287Z,15
2022-08-25T05:10:18.487Z,15
2022-08-25T05:11:23.603Z,15.1
2022-08-25T05:12:17.234Z,15
2022-08-25T05:13:15.783Z,14.9
2022-08-25T05:14:31.503Z,15
2022-08-25T05:15:17.370Z,15
2022-08-25T05:16:21.483Z,15
2022-08-25T05:17:24.605Z,15.3
2022-08-25T05:18:23.590Z,15.3
2022-08-25T05:19:24.402Z,15.3
2022-08-25T05:20:19.175Z,15.3
2022-08-25T05:21:17.760Z,15.4
2022-08-25T05:22:22.230Z,15.4
2022-08-25T05:23:19.000Z,15.4
2022-08-25T05:24:21.838Z,15.6
2022-08-25T05:25:23.732Z,15.5
2022-08-25T05:26:24.446Z,15.5
2022-08-25T05:27:22.570Z,15.5
2022-08-25T05:28:20.351Z,15.6
2022-08-25T05:29:21.654Z,15.6
2022-08-25T05:30:15.670Z,15.6
2022-08-25T05:31:22.277Z,15.7
2022-08-25T05:32:22.371Z,15.8
2022-08-25T05:33:22.824Z,15.8
2022-08-25T05:34:16.046Z,15.8
2022-08-25T05:35:16.727Z,15.9
2022-08-25T05:36:20.337Z,15.9
2022-08-25T05:37:17.702Z,15.9
2022-08-25T05:38:19.635Z,16.1
2022-08-25T05:39:28.855Z,16.1
2022-08-25T05:40:08.751Z,16.1
2022-08-25T05:41:23.135Z,16.2
2022-08-25T05:42:17.959Z,16.2
2022-08-25T05:43:17.743Z,16.2
2022-08-25T05:44:23.765Z,16.3
2022-08-25T05:45:24.785Z,16.4
2022-08-25T05:46:24.132Z,16.4
2022-08-25T05:47:24.178Z,16.5
2022-08-25T05:48:16.714Z,16.5
2022-08-25T05:49:18.102Z,16.5
2022-08-25T05:50:18.996Z,16.7
2022-08-25T05:51:22.863Z,16.8
2022-08-25T05:52:24.158Z,16.8
2022-08-25T05:53:21.116Z,16.9
2022-08-25T05:54:18.666Z,17
2022-08-25T05:55:22.141Z,17
2022-08-25T05:56:22.771Z,17.1
2022-08-25T05:57:21.896Z,17.1
2022-08-25T05:58:20.781Z,17.1
2022-08-25T05:59:22.840Z,17.2
2022-08-25T06:00:22.815Z,17.2
2022-08-25T06:01:23.998Z,17.4
2022-08-25T06:02:17.178Z,17.4
2022-08-25T06:03:17.131Z,17.8
2022-08-25T06:04:18.454Z,17.8
2022-08-25T06:05:17.778Z,17.9
2022-08-25T06:06:18.779Z,17.9
2022-08-25T06:07:14.739Z,18.9
2022-08-25T06:08:23.859Z,19.6
2022-08-25T06:09:21.099Z,19.6
2022-08-25T06:10:09.286Z,19.5
2022-08-25T06:11:22.301Z,19.1
2022-08-25T06:12:14.567Z,19.1
2022-08-25T06:13:32.841Z,19
2022-08-25T06:14:16.016Z,19.3
2022-08-25T06:15:20.638Z,19.3
2022-08-25T06:16:20.229Z,19.3
2022-08-25T06:17:17.943Z,19.1
2022-08-25T06:18:16.984Z,19.2
2022-08-25T06:19:22.712Z,19.1
2022-08-25T06:20:29.458Z,19.1
2022-08-25T06:21:17.061Z,19.1
2022-08-25T06:22:22.462Z,19.2
2022-08-25T06:23:19.711Z,19.2
2022-08-25T06:24:22.364Z,19.1
2022-08-25T06:25:18.212Z,19.1
2022-08-25T06:26:25.592Z,19.2
2022-08-25T06:27:15.107Z,19.2
2022-08-25T06:28:22.211Z,19.2
2022-08-25T06:29:23.960Z,19.4
2022-08-25T06:30:28.759Z,19.3
2022-08-25T06:31:17.615Z,19.3
2022-08-25T06:32:24.426Z,19.3
2022-08-25T06:33:19.638Z,19.6
2022-08-25T06:34:26.257Z,19.6
2022-08-25T06:35:17.134Z,19.6
2022-08-25T06:36:22.001Z,19.8
2022-08-25T06:37:15.874Z,19.9
2022-08-25T06:38:21.216Z,19.9
2022-08-25T06:39:23.073Z,20.2
2022-08-25T06:40:07.745Z,20.2
2022-08-25T06:41:14.391Z,20.6
2022-08-25T06:42:22.343Z,20.9
2022-08-25T06:43:17.212Z,20.7
2022-08-25T06:44:27.927Z,20.7
2022-08-25T06:45:18.760Z,20.7
2022-08-25T06:46:18.046Z,21
2022-08-25T06:47:15.418Z,21.2
2022-08-25T06:48:20.765Z,21.3
2022-08-25T06:49:06.907Z,21.3
2022-08-25T06:50:21.823Z,21.6
2022-08-25T06:51:20.812Z,22.1
2022-08-25T06:52:22.414Z,22.1
2022-08-25T06:53:20.521Z,22.3
2022-08-25T06:54:20.191Z,22.1
2022-08-25T06:55:15.741Z,22.1
2022-08-25T06:56:21.533Z,22.1
2022-08-25T06:57:15.617Z,21.8
2022-08-25T06:58:21.429Z,22.3
2022-08-25T06:59:19.127Z,22.4
2022-08-25T07:00:16.605Z,22.4
2022-08-25T07:01:25.852Z,22.6
2022-08-25T07:02:13.260Z,21.9
2022-08-25T07:03:16.199Z,21.9
2022-08-25T07:04:23.706Z,21.6
2022-08-25T07:05:26.849Z,21.6
2022-08-25T07:06:22.494Z,21.9
2022-08-25T07:07:22.067Z,21.9
2022-08-25T07:08:16.264Z,21.9
2022-08-25T07:09:27.700Z,21.6
2022-08-25T07:10:07.521Z,21.6
2022-08-25T07:11:20.779Z,20.9
2022-08-25T07:12:29.894Z,20.9
2022-08-25T07:13:18.108Z,21
2022-08-25T07:14:20.314Z,20.9
2022-08-25T07:15:24.946Z,20.9
2022-08-25T07:16:21.931Z,21.2
2022-08-25T07:17:20.426Z,21.1
2022-08-25T07:18:20.525Z,21.1
2022-08-25T07:19:19.718Z,21.1
2022-08-25T07:20:27.227Z,21.1
2022-08-25T07:21:33.339Z,21.1
2022-08-25T07:22:25.502Z,21.1
2022-08-25T07:23:20.061Z,21.2
2022-08-25T07:24:19.794Z,21.3
2022-08-25T07:25:22.169Z,21.3
2022-08-25T07:26:40.667Z,21.3
2022-08-25T07:27:19.075Z,21.3
2022-08-25T07:28:16.871Z,21.4
2022-08-25T07:29:44.267Z,21.5
2022-08-25T07:30:16.911Z,21.5
2022-08-25T07:31:22.185Z,21.4
2022-08-25T07:32:25.658Z,21.5
2022-08-25T07:33:22.364Z,21.4
2022-08-25T07:34:11.442Z,21.4
2022-08-25T07:35:26.525Z,21.4
2022-08-25T07:36:24.460Z,21.6
2022-08-25T07:37:51.266Z,21.6
2022-08-25T07:38:25.500Z,21.6
2022-08-25T07:39:26.139Z,21.6
2022-08-25T07:40:20.141Z,21.6
2022-08-25T07:41:21.148Z,21.6
2022-08-25T07:42:18.087Z,21.8
2022-08-25T07:43:22.307Z,21.8
2022-08-25T07:44:19.808Z,21.9
2022-08-25T07:45:20.415Z,21.9
2022-08-25T07:46:22.383Z,21.8
2022-08-25T07:47:27.218Z,21.9
2022-08-25T07:48:15.431Z,21.9
2022-08-25T07:49:25.547Z,21.9
2022-08-25T07:50:22.613Z,22
2022-08-25T07:51:24.617Z,22
2022-08-25T07:52:25.404Z,22
2022-08-25T07:53:19.107Z,22.3
2022-08-25T07:54:18.185Z,22.2
2022-08-25T07:55:22.175Z,22.3
2022-08-25T07:56:23.468Z,22.3
2022-08-25T07:57:20.571Z,22.3
2022-08-25T07:58:24.290Z,22.2
2022-08-25T07:59:19.619Z,22.3
2022-08-25T08:00:26.736Z,22.2
2022-08-25T08:01:22.897Z,22.4
2022-08-25T08:02:26.886Z,22.3
2022-08-25T08:03:53.109Z,22.3
2022-08-25T08:04:20.488Z,22.3
2022-08-25T08:05:28.016Z,22.5
2022-08-25T08:06:17.537Z,22.5
2022-08-25T08:07:25.877Z,22.6
2022-08-25T08:08:23.157Z,22.7
2022-08-25T08:09:28.690Z,22.6
2022-08-25T08:11:16.449Z,22.6
2022-08-25T08:11:19.066Z,22.8
2022-08-25T08:12:20.774Z,22.9
2022-08-25T08:13:23.143Z,23
2022-08-25T08:14:23.589Z,23.1
2022-08-25T08:15:18.674Z,23.2
2022-08-25T08:16:20.327Z,23.1
2022-08-25T08:17:18.299Z,23.3
2022-08-25T08:18:22.591Z,23.3
2022-08-25T08:19:16.014Z,23.4
2022-08-25T08:20:25.215Z,23.5
2022-08-25T08:21:23.981Z,23.4
2022-08-25T08:22:16.516Z,23.4
2022-08-25T08:23:20.629Z,23.5
2022-08-25T08:24:44.476Z,23.5
2022-08-25T08:25:21.495Z,23.6
2022-08-25T08:26:22.451Z,23.8
2022-08-25T08:27:20.883Z,23.8
2022-08-25T08:28:17.975Z,23.8
2022-08-25T08:29:16.830Z,23.9
2022-08-25T08:30:16.061Z,23.9
2022-08-25T08:31:21.606Z,24.1
2022-08-25T08:32:46.390Z,24.1
2022-08-25T08:33:23.765Z,24.1
2022-08-25T08:34:17.477Z,24.1
2022-08-25T08:35:19.074Z,24
2022-08-25T08:36:17.371Z,24.2
2022-08-25T08:37:27.180Z,24.3
2022-08-25T08:38:28.996Z,24.3
2022-08-25T08:39:34.868Z,24.3
2022-08-25T08:40:10.991Z,24.4
2022-08-25T08:41:24.931Z,24.4
2022-08-25T08:42:21.348Z,24.5
2022-08-25T08:43:29.292Z,24.6
2022-08-25T08:44:19.406Z,24.6
2022-08-25T08:45:23.161Z,24.4
2022-08-25T08:46:16.642Z,24.4
2022-08-25T08:47:24.556Z,24.2
2022-08-25T08:48:18.303Z,24.2
2022-08-25T08:49:19.364Z,24.2
2022-08-25T08:50:34.810Z,24.9
2022-08-25T08:51:16.342Z,25.1
2022-08-25T08:52:22.504Z,25.1
2022-08-25T08:53:19.347Z,24.9
2022-08-25T08:54:23.103Z,24.9
2022-08-25T08:55:18.552Z,24.9
2022-08-25T08:56:21.690Z,25.3
2022-08-25T08:57:17.329Z,25.2
2022-08-25T08:58:30.322Z,25.2
2022-08-25T08:59:17.428Z,24.7
2022-08-25T09:00:26.436Z,24.7
2022-08-25T09:01:19.495Z,24.1
2022-08-25T09:02:50.313Z,24.1
2022-08-25T09:03:16.583Z,24.6
2022-08-25T09:04:22.101Z,24.6
2022-08-25T09:05:22.029Z,24.6
2022-08-25T09:06:21.331Z,24.6
2022-08-25T09:07:22.817Z,24.6
2022-08-25T09:08:28.626Z,24.8
2022-08-25T09:09:24.870Z,24.8
2022-08-25T09:10:09.429Z,24.6
2022-08-25T09:11:26.517Z,24.6
2022-08-25T09:12:21.264Z,24.3
2022-08-25T09:13:19.957Z,24.3
2022-08-25T09:14:17.058Z,24.6
2022-08-25T09:15:19.294Z,24.6
2022-08-25T09:16:36.513Z,24.6
2022-08-25T09:17:14.917Z,24.9
2022-08-25T09:18:25.106Z,24.9
2022-08-25T09:19:25.899Z,24.9
2022-08-25T09:20:23.656Z,24.9
2022-08-25T09:21:19.996Z,24.6
2022-08-25T09:22:40.738Z,24.6
2022-08-25T09:23:24.522Z,24.7
2022-08-25T09:24:20.851Z,24.8
2022-08-25T09:25:34.627Z,24.8
2022-08-25T09:26:15.622Z,25.3
2022-08-25T09:27:16.640Z,25.3
2022-08-25T09:28:20.348Z,25.4
2022-08-25T09:29:21.386Z,25.4
2022-08-25T09:30:19.866Z,25.5
2022-08-25T09:31:14.572Z,25.5
2022-08-25T09:32:33.801Z,25.4
2022-08-25T09:33:25.313Z,25.4
2022-08-25T09:34:18.319Z,25.4
2022-08-25T09:35:22.028Z,25.4
2022-08-25T09:36:16.797Z,25.3
2022-08-25T09:37:20.077Z,25.3
2022-08-25T09:38:20.084Z,25.3
2022-08-25T09:39:23.393Z,25.3
2022-08-25T09:40:07.218Z,25.1
2022-08-25T09:41:23.619Z,25.1
2022-08-25T09:42:30.199Z,25.4
2022-08-25T09:43:16.989Z,25.4
2022-08-25T09:44:23.439Z,26
2022-08-25T09:45:27.489Z,26
2022-08-25T09:46:18.062Z,25.9
2022-08-25T09:47:20.003Z,25.9
2022-08-25T09:48:26.653Z,26
2022-08-25T09:49:23.448Z,25.7
2022-08-25T09:50:22.877Z,25.9
2022-08-25T09:51:20.402Z,26
2022-08-25T09:52:19.499Z,26
2022-08-25T09:53:23.871Z,25.6
2022-08-25T09:54:18.228Z,25.5
2022-08-25T09:55:18.961Z,25.5
2022-08-25T09:56:20.775Z,25.3
2022-08-25T09:57:25.221Z,25.3
2022-08-25T09:58:26.488Z,24.8
2022-08-25T09:59:20.090Z,24.8
2022-08-25T10:00:13.464Z,24.6
2022-08-25T10:01:24.822Z,24.7
2022-08-25T10:02:20.586Z,24.6
2022-08-25T10:03:27.310Z,24.6
2022-08-25T10:04:24.407Z,24.8
2022-08-25T10:05:19.872Z,24.8
2022-08-25T10:06:19.142Z,24.8
2022-08-25T10:07:17.994Z,24.8
2022-08-25T10:08:28.953Z,25.8
2022-08-25T10:09:20.288Z,26
2022-08-25T10:10:12.093Z,26
2022-08-25T10:11:20.441Z,26.4
2022-08-25T10:12:18.133Z,26.7
2022-08-25T10:13:27.779Z,26.7
2022-08-25T10:14:18.500Z,26.7
2022-08-25T10:15:31.654Z,25.9
2022-08-25T10:16:35.873Z,25.9
2022-08-25T10:17:27.560Z,25.8
2022-08-25T10:18:19.357Z,25.7
2022-08-25T10:19:17.826Z,25.7
2022-08-25T10:20:18.764Z,25.9
2022-08-25T10:21:19.579Z,26.1
2022-08-25T10:22:16.043Z,25.9
2022-08-25T10:23:20.736Z,25.4
2022-08-25T10:24:28.432Z,25.4
2022-08-25T10:25:18.214Z,25.4
2022-08-25T10:26:20.262Z,25.4
2022-08-25T10:27:17.674Z,25.4
2022-08-25T10:28:18.797Z,25.5
2022-08-25T10:29:14.236Z,25.8
2022-08-25T10:30:07.854Z,25.8
2022-08-25T10:31:20.941Z,25.8
2022-08-25T10:32:17.059Z,26
2022-08-25T10:33:19.664Z,26.3
2022-08-25T10:34:23.905Z,26.3
2022-08-25T10:35:18.811Z,26
2022-08-25T10:36:22.515Z,26
2022-08-25T10:37:19.485Z,26.1
2022-08-25T10:38:32.290Z,25.9
2022-08-25T10:39:42.788Z,25.9
2022-08-25T10:40:07.736Z,25.9
2022-08-25T10:41:19.766Z,25.6
2022-08-25T10:42:27.975Z,25.6
2022-08-25T10:43:23.788Z,25.7
2022-08-25T10:44:26.135Z,25.7
2022-08-25T10:45:25.785Z,25.4
2022-08-25T10:46:21.009Z,25.4
2022-08-25T10:47:21.984Z,25.3
2022-08-25T10:48:26.997Z,25.3
2022-08-25T10:49:19.243Z,25.3
2022-08-25T10:50:08.704Z,25.6
2022-08-25T10:51:30.109Z,25.8
2022-08-25T10:52:20.543Z,25.7
2022-08-25T10:53:21.093Z,25.7
2022-08-25T10:54:22.614Z,25.7
2022-08-25T10:55:18.388Z,25.7
2022-08-25T10:56:23.453Z,25.7
2022-08-25T10:57:21.917Z,25.7
2022-08-25T10:58:17.392Z,26.3
2022-08-25T10:59:19.801Z,26.3
2022-08-25T11:00:20.067Z,25.9
2022-08-25T11:01:34.799Z,25.9
2022-08-25T11:02:24.018Z,26.1
2022-08-25T11:03:37.278Z,26.1
2022-08-25T11:04:20.756Z,26.2
2022-08-25T11:06:22.594Z,26.3
2022-08-25T11:07:20.370Z,26.3
2022-08-25T11:08:18.910Z,26.3
2022-08-25T11:09:27.390Z,26.1
2022-08-25T11:10:08.695Z,26.1
2022-08-25T11:11:13.511Z,26.1
2022-08-25T11:12:22.023Z,26.3
2022-08-25T11:13:21.086Z,26.4
2022-08-25T11:14:19.379Z,26.6
2022-08-25T11:15:20.864Z,26.4
2022-08-25T11:16:23.288Z,26.4
2022-08-25T11:17:21.095Z,26.4
2022-08-25T11:18:20.862Z,26.9
2022-08-25T11:19:21.285Z,26.9
2022-08-25T11:20:32.060Z,27.1
2022-08-25T11:21:18.569Z,27.1
2022-08-25T11:22:24.408Z,27.2
2022-08-25T11:23:25.926Z,27.2
2022-08-25T11:24:20.253Z,27.2
2022-08-25T11:25:21.545Z,27.6
2022-08-25T11:26:30.366Z,26.6
2022-08-25T11:27:24.315Z,26.5
2022-08-25T11:28:17.978Z,26.5
2022-08-25T11:29:20.573Z,26.7
2022-08-25T11:30:16.450Z,26.9
2022-08-25T11:31:20.823Z,27.1
2022-08-25T11:32:17.100Z,27.1
2022-08-25T11:33:21.638Z,27
2022-08-25T11:34:16.015Z,26.5
2022-08-25T11:35:19.467Z,26.5
2022-08-25T11:36:17.234Z,26.3
2022-08-25T11:37:21.283Z,26.2
2022-08-25T11:38:19.896Z,26.1
2022-08-25T11:39:22.917Z,26.1
2022-08-25T11:40:10.984Z,26
2022-08-25T11:41:23.513Z,26
2022-08-25T11:42:20.428Z,26.5
2022-08-25T11:43:19.263Z,26.6
2022-08-25T11:44:18.988Z,26.6
2022-08-25T11:45:18.644Z,26.7
2022-08-25T11:46:18.735Z,26.5
2022-08-25T11:47:25.478Z,26.6
2022-08-25T11:48:28.640Z,26.6
2022-08-25T11:49:23.830Z,26.6
2022-08-25T11:50:19.154Z,26.8
2022-08-25T11:51:24.556Z,27.1
2022-08-25T11:52:13.980Z,27.1
2022-08-25T11:53:28.973Z,27.1
2022-08-25T11:54:16.970Z,27.3
2022-08-25T11:55:24.833Z,27.3
2022-08-25T11:56:21.861Z,27.1
2022-08-25T11:57:16.065Z,27.1
2022-08-25T11:58:25.282Z,26.9
2022-08-25T11:59:19.759Z,26.9
2022-08-25T12:00:19.814Z,26.9
2022-08-25T12:01:17.625Z,26.6
2022-08-25T12:02:21.869Z,26.3
2022-08-25T12:03:15.845Z,26.2
2022-08-25T12:04:33.959Z,26.3
2022-08-25T12:05:21.898Z,26.4
2022-08-25T12:06:17.509Z,26.4
2022-08-25T12:07:20.834Z,26.8
2022-08-25T12:08:22.050Z,26.8
2022-08-25T12:09:27.587Z,26.8
2022-08-25T12:10:07.901Z,26.6
2022-08-25T12:11:21.024Z,26.6
2022-08-25T12:12:21.445Z,26.3
2022-08-25T12:13:24.661Z,26.3
2022-08-25T12:14:15.094Z,26.6
2022-08-25T12:15:23.388Z,26.6
2022-08-25T12:16:20.638Z,26.8
2022-08-25T12:17:20.620Z,26.8
2022-08-25T12:18:20.978Z,27
2022-08-25T12:19:22.988Z,27.3
2022-08-25T12:20:20.933Z,27.6
2022-08-25T12:21:29.239Z,27.5
2022-08-25T12:22:16.326Z,27.4
2022-08-25T12:23:19.751Z,27.4
2022-08-25T12:24:18.231Z,27.1
2022-08-25T12:25:18.527Z,27.1
2022-08-25T12:26:21.219Z,27.1
2022-08-25T12:27:22.589Z,27.1
2022-08-25T12:28:13.165Z,27
2022-08-25T12:29:23.539Z,27
2022-08-25T12:30:23.617Z,27
2022-08-25T12:31:21.233Z,27
2022-08-25T12:32:18.748Z,26.7
2022-08-25T12:33:20.238Z,26.5
2022-08-25T12:34:31.134Z,26.4
2022-08-25T12:35:19.399Z,26.4
2022-08-25T12:36:27.479Z,26.4
2022-08-25T12:37:19.192Z,26.4
2022-08-25T12:38:16.058Z,26.4
2022-08-25T12:39:28.648Z,26.3
2022-08-25T12:40:07.919Z,26.3
2022-08-25T12:41:19.557Z,26.4
2022-08-25T12:42:22.036Z,26.4
2022-08-25T12:43:27.073Z,26.4
2022-08-25T12:44:21.971Z,26.5
2022-08-25T12:45:22.067Z,26.5
2022-08-25T12:46:20.645Z,26.5
2022-08-25T12:47:19.717Z,26.4
2022-08-25T12:48:18.095Z,26.4
2022-08-25T12:49:26.820Z,26.5
2022-08-25T12:50:19.953Z,26.5
2022-08-25T12:51:22.483Z,26.5
2022-08-25T12:52:18.102Z,26.5
2022-08-25T12:53:19.617Z,26.3
2022-08-25T12:54:22.388Z,26.3
2022-08-25T12:55:24.038Z,26.4
2022-08-25T12:56:15.872Z,26.4
2022-08-25T12:57:16.766Z,26.1
2022-08-25T12:58:22.128Z,26.1
2022-08-25T12:59:23.399Z,26.2
2022-08-25T13:00:22.999Z,26.2
2022-08-25T13:01:40.200Z,26.2
2022-08-25T13:02:20.998Z,26.2
2022-08-25T13:03:18.570Z,26.1
2022-08-25T13:04:25.910Z,26.1
2022-08-25T13:05:24.145Z,26.2
2022-08-25T13:06:20.067Z,26.3
2022-08-25T13:07:20.540Z,26.3
2022-08-25T13:08:22.968Z,26.3
2022-08-25T13:09:27.835Z,26.4
2022-08-25T13:10:07.662Z,26.4
2022-08-25T13:11:24.626Z,26.3
2022-08-25T13:12:23.491Z,26.4
2022-08-25T13:13:17.793Z,26.4
2022-08-25T13:14:21.249Z,26.4
2022-08-25T13:15:26.821Z,26.4
2022-08-25T13:16:31.651Z,26.5
2022-08-25T13:17:11.761Z,26.5
2022-08-25T13:18:22.841Z,26.6
2022-08-25T13:19:23.667Z,26.8
2022-08-25T13:20:21.194Z,26.8
2022-08-25T13:21:18.820Z,26.9
2022-08-25T13:22:20.803Z,26.9
2022-08-25T13:23:20.026Z,27
2022-08-25T13:24:19.806Z,26.9